METAR Data
IDs: Format: Raw Decoded Include TAF

Data at: 1007 UTC 20 Sep 2019

METAR for:KDCA (Washington/National, VA, US)
Text:KDCA 200952Z 21005KT 10SM SCT250 14/10 A3031 RMK AO2 SLP262 T01390100
Temperature: 13.9°C ( 57°F)
Dewpoint: 10.0°C ( 50°F) [RH = 77%]
Pressure (altimeter):30.31 inches Hg (1026.5 mb) [Sea level pressure: 1026.2 mb]
Winds:from the SSW (210 degrees) at 6 MPH (5 knots; 2.6 m/s)
Visibility:10 or more sm (16+ km)
Ceiling:at least 12,000 feet AGL
Clouds: scattered clouds at 25000 feet AGL

METAR for:KIAD (Washington/Dulles In, VA, US)
Text:KIAD 200952Z 00000KT 10SM SCT250 10/07 A3029 RMK AO2 SLP257 T01000072
Temperature: 10.0°C ( 50°F)
Dewpoint: 7.2°C ( 45°F) [RH = 83%]
Pressure (altimeter):30.29 inches Hg (1025.8 mb) [Sea level pressure: 1025.7 mb]
Winds:calm
Visibility:10 or more sm (16+ km)
Ceiling:at least 12,000 feet AGL
Clouds: scattered clouds at 25000 feet AGL

METAR for:KBWI (Baltimore-Washington, MD, US)
Text:KBWI 200954Z 00000KT 10SM SCT250 10/09 A3030 RMK AO2 SLP260 T01000089
Temperature: 10.0°C ( 50°F)
Dewpoint: 8.9°C ( 48°F) [RH = 93%]
Pressure (altimeter):30.30 inches Hg (1026.2 mb) [Sea level pressure: 1026.0 mb]
Winds:calm
Visibility:10 or more sm (16+ km)
Ceiling:at least 12,000 feet AGL
Clouds: scattered clouds at 25000 feet AGL

METAR for:KMTN (Baltimore/Martin Sta, MD, US)
Text:KMTN 200954Z 00000KT 10 FEW250 11/10 A3031 RMK FIRST
Temperature: 11.0°C ( 52°F)
Dewpoint: 10.0°C ( 50°F) [RH = 94%]
Pressure (altimeter):30.31 inches Hg (1026.5 mb)
Winds:calm
Ceiling:at least 12,000 feet AGL
Clouds: few clouds at 25000 feet AGL

METAR for:KCHO (Charlottesville/Albe, VA, US)
Text:KCHO 200953Z 27004KT 10SM CLR 10/08 A3030 RMK AO2 SLP257 T01000078
Temperature: 10.0°C ( 50°F)
Dewpoint: 7.8°C ( 46°F) [RH = 86%]
Pressure (altimeter):30.30 inches Hg (1026.2 mb) [Sea level pressure: 1025.7 mb]
Winds:from the W (270 degrees) at 5 MPH (4 knots; 2.1 m/s)
Visibility:10 or more sm (16+ km)
Ceiling:at least 12,000 feet AGL
Clouds:sky clear below 12,000 feet AGL

METAR for:KMRB (Martinsburg/E West V, WV, US)
Text:KMRB 200953Z 00000KT 10SM CLR 07/05 A3027 RMK AO2 SLP252 T00670050
Temperature: 6.7°C ( 44°F)
Dewpoint: 5.0°C ( 41°F) [RH = 89%]
Pressure (altimeter):30.27 inches Hg (1025.1 mb) [Sea level pressure: 1025.2 mb]
Winds:calm
Visibility:10 or more sm (16+ km)
Ceiling:at least 12,000 feet AGL
Clouds:sky clear below 12,000 feet AGL